עמוד ראשי
METAR-TAF:

METAR-TAF

שדות תעופה :

King Cove, אלסקה, ארצות הברית

קו רוחב: 55-06-59N, קו אורך: 162-15-58W, גובה: 47מטר

תצפית מזג אוויר נוכחית

הדו"ח נערך לפני 16 שעות ו 34דקות, בשעה 00:56 UTC
רוח 10קשר מכיוון מזרח
טמפרטורת 8 צלסיוס
לחות 100%
לחץ 1013 hPa
ראות: 16.1קילומטר
מעונן בגובה 800רגל

METAR: PAVC 200056Z AUTO 08010KT 10SM OVC008 08/08 A2991 RMK AO2 RAE01 CIG 005V010 SLPNO T00830083 PNO $

זמן: 09:30 (17:30 UTC)


TAF: חסר

תצפיות ותחזיות מזג אוויר לגבי יותר מ- 4,000 שדות תעופה ברחבי העולם. דוחות METAR ו- TAF.

התחנות הזמינות מסומנות בנקודות צהובות ואדומות על גבי המפה.

העבר את העכבר לנקודה הצבעונית על מנת לראות את שם התחנה.

לאחר מכן, לחץ כדי לראות את תוכן ואת תחזיות מזג האוויר.

כדי לשנות את המפה: לחץ על הכפתורים הירוקים עם הפלוס השחור כדי להתקרב; על הכפתור הירוק עם המקף כדי להתרחק; או בחיצים הירוקים למפות סמוכות.


METAR-TAF: